EGPE/INV METAR and TAF weather

Enter ICAO airport designator
Station Type Date Time Source
EGPE METAR 2020/06/05 11:50 UTC NOAA

EGPE 051150Z AUTO 30016KT 9999 NCD 11/04 Q0993


Station Type Date Time Source
EGPE Decoded METAR 2020/06/05 11:50 UTC NOAA

Inverness / Dalcross, United Kingdom (EGPE) 57-32N 004-03W 0M
Jun 05, 2020 - 07:50 AM EDT / 2020.06.05 1150 UTC
Wind: from the WNW (300 degrees) at 18 MPH (16 KT):0
Visibility: greater than 7 mile(s):0
Temperature: 51 F (11 C)
Dew Point: 39 F (4 C)
Relative Humidity: 61%
Pressure (altimeter): 29.32 in. Hg (0993 hPa)
ob: EGPE 051150Z AUTO 30016KT 9999 NCD 11/04 Q0993
cycle: 12

Station Type Date Time Source
EGPE TAF UTC NOAA

Error!

Example: see airport list